Time;durP1;ratioP1;P1;durP2;ratioP2;P2;SDS_P1;SDS_P2;PMS_P1;PMS_P2;Temp;Humidity;BMP_temperature;BMP_pressure;BME280_temperature;BME280_humidity;BME280_pressure;Samples;Min_cycle;Max_cycle;Signal;HPM_P1;HPM_P2
2021/08/20 00:00:43;;;;;;;7.13;4.63;;;;;;;;;;5089865;28;20625;-87
2021/08/20 00:03:08;;;;;;;9.38;5.85;;;;;;;;;;5071075;28;20345;-87
2021/08/20 00:05:33;;;;;;;8.45;5.00;;;;;;;;;;5089319;28;20019;-87
2021/08/20 00:07:59;;;;;;;5.78;4.22;;;;;;;;;;5071397;28;20028;-87
2021/08/20 00:10:24;;;;;;;6.47;3.92;;;;;;;;;;5071151;28;21381;-87
2021/08/20 00:12:49;;;;;;;5.07;3.40;;;;;;;;;;5070740;28;20150;-87
2021/08/20 00:15:15;;;;;;;4.95;3.40;;;;;;;;;;5071382;28;20023;-87
2021/08/20 00:17:40;;;;;;;8.80;3.35;;;;;;;;;;5071549;28;20058;-87
2021/08/20 00:20:05;;;;;;;6.60;3.43;;;;;;;;;;5089923;28;20024;-87
2021/08/20 00:22:31;;;;;;;5.43;3.50;;;;;;;;;;5089523;28;20254;-86
2021/08/20 00:24:56;;;;;;;8.57;4.45;;;;;;;;;;5071046;28;21424;-87
2021/08/20 00:27:21;;;;;;;10.95;5.53;;;;;;;;;;5088214;28;20039;-87
2021/08/20 00:29:46;;;;;;;9.70;5.57;;;;;;;;;;5121109;23;20051;-68
2021/08/20 00:32:11;;;;;;;9.20;5.38;;;;;;;;;;5126238;27;20741;-68
2021/08/20 00:34:37;;;;;;;7.75;4.85;;;;;;;;;;5132966;27;20469;-68
2021/08/20 00:37:02;;;;;;;6.28;3.63;;;;;;;;;;5132439;27;20041;-68
2021/08/20 00:39:27;;;;;;;8.30;4.35;;;;;;;;;;5118522;27;20024;-67
2021/08/20 00:41:53;;;;;;;12.18;5.57;;;;;;;;;;5112417;22;20083;-86
2021/08/20 00:44:18;;;;;;;6.53;4.00;;;;;;;;;;5050488;28;20024;-87
2021/08/20 00:46:44;;;;;;;13.45;5.50;;;;;;;;;;5070576;28;20115;-87
2021/08/20 00:49:10;;;;;;;7.35;4.60;;;;;;;;;;5050856;28;20032;-87
2021/08/20 00:51:36;;;;;;;6.88;4.80;;;;;;;;;;5050599;28;20090;-87
2021/08/20 00:54:02;;;;;;;7.15;4.60;;;;;;;;;;5048924;28;20096;-87
2021/08/20 00:56:28;;;;;;;6.10;3.75;;;;;;;;;;5051022;28;20385;-87
2021/08/20 00:58:54;;;;;;;7.78;4.72;;;;;;;;;;5049517;28;20028;-87
2021/08/20 01:01:19;;;;;;;5.68;4.07;;;;;;;;;;5050293;28;20367;-88
2021/08/20 01:03:44;;;;;;;13.82;4.05;;;;;;;;;;5032016;28;20537;-87
2021/08/20 01:06:10;;;;;;;4.78;3.47;;;;;;;;;;5048821;28;20421;-86
2021/08/20 01:08:36;;;;;;;9.98;3.80;;;;;;;;;;5047908;28;20436;-87
2021/08/20 01:11:03;;;;;;;6.65;3.47;;;;;;;;;;5032532;28;20075;-87
2021/08/20 01:13:35;;;;;;;7.93;4.18;;;;;;;;;;5030941;28;20035;-87
2021/08/20 01:16:01;;;;;;;6.78;4.07;;;;;;;;;;5031323;28;20398;-86
2021/08/20 01:18:27;;;;;;;6.78;3.83;;;;;;;;;;5049187;28;20028;-87
2021/08/20 01:20:53;;;;;;;7.32;3.70;;;;;;;;;;5049259;28;20028;-87
2021/08/20 01:23:19;;;;;;;8.38;3.78;;;;;;;;;;5030650;28;20024;-87
2021/08/20 01:25:45;;;;;;;6.72;3.90;;;;;;;;;;5031847;28;20032;-87
2021/08/20 01:28:11;;;;;;;8.80;3.60;;;;;;;;;;5034202;28;20021;-87
2021/08/20 01:30:37;;;;;;;7.25;3.92;;;;;;;;;;5072864;28;20039;-86
2021/08/20 01:33:02;;;;;;;9.90;3.97;;;;;;;;;;5039557;28;20021;-87
2021/08/20 01:35:28;;;;;;;12.68;3.70;;;;;;;;;;5032063;28;20021;-87
2021/08/20 01:37:53;;;;;;;8.20;4.43;;;;;;;;;;5049292;28;20028;-87
2021/08/20 01:40:19;;;;;;;9.88;4.25;;;;;;;;;;5031025;28;20035;-87
2021/08/20 01:42:44;;;;;;;6.70;4.10;;;;;;;;;;5030507;28;20124;-87
2021/08/20 01:45:09;;;;;;;6.90;4.43;;;;;;;;;;5031320;28;20033;-87
2021/08/20 01:47:35;;;;;;;8.10;4.50;;;;;;;;;;5029490;28;20028;-87
2021/08/20 01:50:00;;;;;;;9.13;4.35;;;;;;;;;;5048463;28;20104;-87
2021/08/20 01:52:25;;;;;;;11.50;4.95;;;;;;;;;;5048328;28;20023;-87
2021/08/20 01:54:51;;;;;;;7.05;4.32;;;;;;;;;;5048874;28;20024;-87
2021/08/20 01:57:16;;;;;;;15.30;4.93;;;;;;;;;;5048087;28;20040;-87
2021/08/20 01:59:42;;;;;;;10.75;4.88;;;;;;;;;;5048311;28;20060;-87
2021/08/20 02:02:07;;;;;;;10.63;4.30;;;;;;;;;;5030046;28;20029;-87
2021/08/20 02:04:33;;;;;;;9.90;5.68;;;;;;;;;;5048537;28;20025;-87
2021/08/20 02:06:58;;;;;;;8.70;4.13;;;;;;;;;;5048479;28;20021;-87
2021/08/20 02:09:23;;;;;;;14.30;4.97;;;;;;;;;;5030518;28;20025;-87
2021/08/20 02:11:50;;;;;;;14.05;5.10;;;;;;;;;;5048255;28;20423;-86
2021/08/20 02:14:15;;;;;;;8.77;4.93;;;;;;;;;;5046689;28;20100;-86
2021/08/20 02:16:40;;;;;;;11.68;5.95;;;;;;;;;;5048637;28;20033;-87
2021/08/20 02:19:06;;;;;;;12.35;5.60;;;;;;;;;;5048615;28;20024;-87
2021/08/20 02:21:31;;;;;;;11.48;6.30;;;;;;;;;;5046355;28;20029;-87
2021/08/20 02:23:56;;;;;;;11.05;5.57;;;;;;;;;;5047923;28;20025;-87
2021/08/20 02:26:21;;;;;;;14.38;6.20;;;;;;;;;;5048123;28;20059;-87
2021/08/20 02:28:47;;;;;;;20.10;6.07;;;;;;;;;;5030663;28;20051;-87
2021/08/20 02:31:12;;;;;;;14.57;6.15;;;;;;;;;;5029278;28;20017;-87
2021/08/20 02:33:40;;;;;;;10.73;5.75;;;;;;;;;;5029515;28;20057;-87
2021/08/20 02:36:06;;;;;;;10.52;5.93;;;;;;;;;;5047752;28;20421;-86
2021/08/20 02:38:32;;;;;;;13.07;6.57;;;;;;;;;;5048834;28;20086;-87
2021/08/20 02:40:57;;;;;;;11.67;6.50;;;;;;;;;;5048768;28;20541;-88
2021/08/20 02:43:22;;;;;;;14.48;5.85;;;;;;;;;;5046920;28;20272;-87
2021/08/20 02:45:47;;;;;;;12.27;6.27;;;;;;;;;;5027155;28;20393;-87
2021/08/20 02:48:13;;;;;;;12.85;6.22;;;;;;;;;;5024682;28;20378;-87
2021/08/20 02:50:38;;;;;;;19.30;7.47;;;;;;;;;;5030725;28;20025;-87
2021/08/20 02:53:03;;;;;;;11.90;7.05;;;;;;;;;;5047515;28;20048;-87
2021/08/20 02:55:28;;;;;;;20.37;8.17;;;;;;;;;;5046480;28;20021;-87
2021/08/20 02:57:56;;;;;;;20.90;8.55;;;;;;;;;;5046088;28;20279;-88
2021/08/20 03:00:21;;;;;;;25.23;9.50;;;;;;;;;;5030121;28;20024;-87
2021/08/20 03:02:46;;;;;;;23.67;8.90;;;;;;;;;;5030095;28;20417;-88
2021/08/20 03:05:12;;;;;;;17.33;8.38;;;;;;;;;;5049410;28;20028;-88
2021/08/20 03:07:37;;;;;;;17.50;8.25;;;;;;;;;;5033800;28;20029;-87
2021/08/20 03:10:03;;;;;;;16.30;8.23;;;;;;;;;;5033861;28;20017;-87
2021/08/20 03:12:28;;;;;;;18.05;8.23;;;;;;;;;;5051504;28;20040;-86
2021/08/20 03:14:53;;;;;;;19.25;8.00;;;;;;;;;;5052223;28;20104;-87
2021/08/20 03:17:19;;;;;;;19.58;8.57;;;;;;;;;;5052995;28;20402;-87
2021/08/20 03:19:45;;;;;;;26.77;9.20;;;;;;;;;;5051114;28;20482;-88
2021/08/20 03:22:10;;;;;;;18.98;8.40;;;;;;;;;;5035478;28;20095;-87
2021/08/20 03:24:35;;;;;;;22.33;7.95;;;;;;;;;;5034464;28;20473;-87
2021/08/20 03:27:00;;;;;;;17.75;7.47;;;;;;;;;;5034258;28;20029;-87
2021/08/20 03:29:26;;;;;;;18.77;8.52;;;;;;;;;;5034084;28;20021;-86
2021/08/20 03:31:51;;;;;;;22.27;9.85;;;;;;;;;;5051674;28;20056;-87
2021/08/20 03:34:16;;;;;;;19.13;9.87;;;;;;;;;;5051916;28;20017;-87
2021/08/20 03:36:41;;;;;;;21.10;10.05;;;;;;;;;;5051083;28;20356;-87
2021/08/20 03:39:07;;;;;;;21.07;8.73;;;;;;;;;;5050749;28;20024;-87
2021/08/20 03:41:32;;;;;;;19.90;9.07;;;;;;;;;;5051067;28;20353;-87
2021/08/20 03:43:57;;;;;;;17.38;8.43;;;;;;;;;;5050325;28;20079;-87
2021/08/20 03:46:22;;;;;;;17.58;8.98;;;;;;;;;;5032718;28;20498;-85
2021/08/20 03:48:49;;;;;;;21.80;10.13;;;;;;;;;;5033878;28;20036;-88
2021/08/20 03:51:14;;;;;;;14.30;8.18;;;;;;;;;;5034531;28;20256;-88
2021/08/20 03:53:40;;;;;;;22.07;9.50;;;;;;;;;;5051857;28;20024;-87
2021/08/20 03:56:05;;;;;;;17.42;8.27;;;;;;;;;;5053059;28;20255;-85
2021/08/20 03:58:30;;;;;;;23.38;8.68;;;;;;;;;;5052628;28;20028;-87
2021/08/20 04:00:55;;;;;;;23.02;9.32;;;;;;;;;;5048296;28;20031;-88
2021/08/20 04:03:22;;;;;;;25.27;9.93;;;;;;;;;;5050916;28;20009;-87
2021/08/20 04:05:48;;;;;;;24.08;9.77;;;;;;;;;;5075025;28;20022;-85
2021/08/20 04:08:13;;;;;;;22.20;9.18;;;;;;;;;;5037245;28;20025;-87
2021/08/20 04:10:39;;;;;;;16.48;8.60;;;;;;;;;;5033581;28;20036;-87
2021/08/20 04:13:04;;;;;;;18.40;8.40;;;;;;;;;;5051481;28;20067;-87
2021/08/20 04:15:29;;;;;;;16.20;8.15;;;;;;;;;;5051452;28;20024;-87
2021/08/20 04:17:55;;;;;;;30.70;9.38;;;;;;;;;;5033070;28;20600;-87
2021/08/20 04:20:20;;;;;;;19.45;8.52;;;;;;;;;;5031908;28;20067;-87
2021/08/20 04:22:45;;;;;;;21.73;9.65;;;;;;;;;;5048276;28;20029;-87
2021/08/20 04:25:10;;;;;;;24.10;9.00;;;;;;;;;;5050449;28;20090;-86
2021/08/20 04:27:36;;;;;;;18.65;10.27;;;;;;;;;;5050015;28;20102;-87
2021/08/20 04:30:01;;;;;;;23.30;10.35;;;;;;;;;;5050622;28;20045;-87
2021/08/20 04:32:26;;;;;;;25.40;11.18;;;;;;;;;;5032025;28;20501;-87
2021/08/20 04:34:51;;;;;;;25.10;10.33;;;;;;;;;;5032552;28;20049;-87
2021/08/20 04:37:19;;;;;;;26.10;9.82;;;;;;;;;;5051595;28;20278;-86
2021/08/20 04:39:45;;;;;;;20.48;10.13;;;;;;;;;;5052752;28;20489;-87
2021/08/20 04:42:10;;;;;;;20.38;9.82;;;;;;;;;;5050693;28;20079;-88
2021/08/20 04:44:35;;;;;;;23.33;10.90;;;;;;;;;;5051040;28;20482;-89
2021/08/20 04:47:00;;;;;;;16.77;10.40;;;;;;;;;;5050184;28;20024;-88
2021/08/20 04:49:26;;;;;;;24.40;11.52;;;;;;;;;;5050983;28;20013;-88
2021/08/20 04:51:51;;;;;;;22.85;11.88;;;;;;;;;;5032279;28;20021;-88
2021/08/20 04:54:17;;;;;;;24.98;11.27;;;;;;;;;;5049879;28;20385;-87
2021/08/20 04:56:42;;;;;;;16.80;9.48;;;;;;;;;;5049669;28;20410;-87
2021/08/20 04:59:08;;;;;;;14.55;8.18;;;;;;;;;;5050302;28;20070;-88
2021/08/20 05:01:33;;;;;;;15.90;8.73;;;;;;;;;;5031221;28;20032;-88
2021/08/20 05:03:58;;;;;;;19.20;8.23;;;;;;;;;;5048156;28;20025;-88
2021/08/20 05:06:24;;;;;;;12.23;7.88;;;;;;;;;;5049444;28;20036;-86
2021/08/20 05:08:49;;;;;;;15.77;7.63;;;;;;;;;;5032731;28;20413;-87
2021/08/20 05:11:17;;;;;;;15.02;7.22;;;;;;;;;;5029386;28;20107;-88
2021/08/20 05:13:47;;;;;;;15.63;8.10;;;;;;;;;;5038414;28;20078;-89
2021/08/20 05:16:15;;;;;;;12.82;7.63;;;;;;;;;;5028840;28;20032;-86
2021/08/20 05:18:40;;;;;;;16.67;8.43;;;;;;;;;;5029731;28;20060;-87
2021/08/20 05:21:06;;;;;;;17.40;8.32;;;;;;;;;;5029384;28;20488;-88
2021/08/20 05:23:34;;;;;;;16.65;9.07;;;;;;;;;;5050133;28;20211;-88
2021/08/20 05:26:07;;;;;;;23.23;8.68;;;;;;;;;;5047628;28;20071;-87
2021/08/20 05:28:35;;;;;;;14.73;8.00;;;;;;;;;;5029517;28;20025;-87
2021/08/20 05:31:01;;;;;;;20.48;10.57;;;;;;;;;;5022841;28;20088;-86
2021/08/20 05:33:29;;;;;;;22.92;10.30;;;;;;;;;;5027190;28;20021;-88
2021/08/20 05:36:07;;;;;;;19.52;10.55;;;;;;;;;;5032387;28;20033;-88
2021/08/20 05:38:33;;;;;;;22.05;11.13;;;;;;;;;;5026049;28;20057;-87
2021/08/20 05:41:04;;;;;;;25.70;12.02;;;;;;;;;;5028549;28;20421;-87
2021/08/20 05:43:31;;;;;;;22.45;10.43;;;;;;;;;;5028623;28;20045;-88
2021/08/20 05:46:22;;;;;;;21.33;9.23;;;;;;;;;;5029302;28;20139;-92
2021/08/20 05:49:12;;;;;;;22.70;9.45;;;;;;;;;;5023039;28;20048;-92
2021/08/20 05:55:10;;;;;;;;;;;;;;;;;;;;;
2021/08/20 06:01:24;;;;;;;21.13;9.82;;;;;;;;;;4885159;29;20064;-90
2021/08/20 06:07:13;;;;;;;;;;;;;;;;;;;;;
2021/08/20 06:09:40;;;;;;;20.30;9.38;;;;;;;;;;4935760;29;20037;-92
2021/08/20 06:12:05;;;;;;;19.10;10.70;;;;;;;;;;4958552;28;20405;-90
2021/08/20 06:14:31;;;;;;;25.50;9.82;;;;;;;;;;4944223;28;20031;-89
2021/08/20 06:16:56;;;;;;;27.73;10.90;;;;;;;;;;4995302;28;20041;-90
2021/08/20 06:19:22;;;;;;;20.65;10.60;;;;;;;;;;5065087;28;20029;-89
2021/08/20 06:21:47;;;;;;;35.42;10.98;;;;;;;;;;5030946;28;20548;-88
2021/08/20 06:24:13;;;;;;;20.60;11.15;;;;;;;;;;5048520;28;20132;-90
2021/08/20 06:26:38;;;;;;;18.27;9.57;;;;;;;;;;5029966;28;20112;-90
2021/08/20 06:29:04;;;;;;;19.33;10.33;;;;;;;;;;5031198;28;20055;-90
2021/08/20 06:31:29;;;;;;;18.15;8.35;;;;;;;;;;5050423;28;20277;-89
2021/08/20 06:33:58;;;;;;;18.02;10.23;;;;;;;;;;5031999;28;20107;-89
2021/08/20 06:36:26;;;;;;;23.17;11.65;;;;;;;;;;5031951;28;20390;-90
2021/08/20 06:38:51;;;;;;;23.42;11.80;;;;;;;;;;5031276;28;20028;-90
2021/08/20 06:41:17;;;;;;;17.42;10.18;;;;;;;;;;5035247;28;20017;-91
2021/08/20 06:43:42;;;;;;;19.58;10.98;;;;;;;;;;5035502;28;20497;-90
2021/08/20 06:46:07;;;;;;;21.35;12.32;;;;;;;;;;5036256;28;20028;-90
2021/08/20 06:48:33;;;;;;;18.33;11.45;;;;;;;;;;5035919;28;20032;-90
2021/08/20 06:50:58;;;;;;;21.35;10.30;;;;;;;;;;5036026;28;20805;-91
2021/08/20 06:53:23;;;;;;;24.00;11.13;;;;;;;;;;5035184;28;20573;-89
2021/08/20 06:55:49;;;;;;;16.02;10.10;;;;;;;;;;5035524;28;20442;-90
2021/08/20 06:58:14;;;;;;;30.15;12.85;;;;;;;;;;5053247;28;20023;-89
2021/08/20 07:00:39;;;;;;;26.23;12.40;;;;;;;;;;5035081;28;20390;-89
2021/08/20 07:03:07;;;;;;;23.40;11.80;;;;;;;;;;5035942;28;20028;-90
2021/08/20 07:05:33;;;;;;;26.05;12.35;;;;;;;;;;5036313;28;20390;-90
2021/08/20 07:07:58;;;;;;;24.35;10.85;;;;;;;;;;5035397;28;20021;-91
2021/08/20 07:10:24;;;;;;;22.35;11.23;;;;;;;;;;5037803;28;20028;-91
2021/08/20 07:12:52;;;;;;;24.23;10.13;;;;;;;;;;5037132;28;20017;-92
2021/08/20 07:15:17;;;;;;;26.13;11.77;;;;;;;;;;5047301;28;20371;-92
2021/08/20 07:17:42;;;;;;;23.30;11.25;;;;;;;;;;5046570;28;20028;-91
2021/08/20 07:20:09;;;;;;;19.85;10.52;;;;;;;;;;5036298;28;20024;-91
2021/08/20 07:22:34;;;;;;;15.85;10.20;;;;;;;;;;5035942;28;20029;-91
2021/08/20 07:25:00;;;;;;;18.33;10.20;;;;;;;;;;5035753;28;20107;-91
2021/08/20 07:27:25;;;;;;;19.08;11.30;;;;;;;;;;5035239;28;20047;-91
2021/08/20 07:29:51;;;;;;;24.52;11.02;;;;;;;;;;5035573;28;20020;-91
2021/08/20 07:32:19;;;;;;;21.95;11.07;;;;;;;;;;5035175;28;20450;-90
2021/08/20 07:34:47;;;;;;;23.48;11.15;;;;;;;;;;5036666;28;20068;-90
2021/08/20 07:37:12;;;;;;;21.85;11.38;;;;;;;;;;5037727;28;20021;-91
2021/08/20 07:39:38;;;;;;;18.35;11.00;;;;;;;;;;5057084;28;20024;-92
2021/08/20 07:42:04;;;;;;;19.67;10.27;;;;;;;;;;5041074;28;20039;-92
2021/08/20 07:44:29;;;;;;;23.58;11.55;;;;;;;;;;5036212;28;20036;-91
2021/08/20 07:46:54;;;;;;;24.42;10.63;;;;;;;;;;5035205;28;20029;-91
2021/08/20 07:49:20;;;;;;;18.52;10.23;;;;;;;;;;5036318;28;20387;-91
2021/08/20 07:51:48;;;;;;;20.88;11.15;;;;;;;;;;5034785;28;20025;-92
2021/08/20 07:54:14;;;;;;;21.20;11.13;;;;;;;;;;5036005;28;20230;-91
2021/08/20 07:56:39;;;;;;;16.10;10.23;;;;;;;;;;5035359;28;20024;-90
2021/08/20 07:59:05;;;;;;;19.05;10.07;;;;;;;;;;5035494;28;20413;-90
2021/08/20 08:01:33;;;;;;;16.77;10.15;;;;;;;;;;5034641;28;20021;-90
2021/08/20 08:04:07;;;;;;;16.08;8.68;;;;;;;;;;5035581;28;20020;-91
2021/08/20 08:06:40;;;;;;;21.00;11.48;;;;;;;;;;5035150;28;20044;-90
2021/08/20 08:09:08;;;;;;;23.60;12.05;;;;;;;;;;5035602;28;20021;-92
2021/08/20 08:11:34;;;;;;;22.85;11.85;;;;;;;;;;5017452;28;20067;-89
2021/08/20 08:14:06;;;;;;;20.38;10.95;;;;;;;;;;5035615;28;20020;-90
2021/08/20 08:16:32;;;;;;;20.10;11.50;;;;;;;;;;5035813;28;20029;-91
2021/08/20 08:18:57;;;;;;;23.33;12.00;;;;;;;;;;5035265;28;20021;-90
2021/08/20 08:21:23;;;;;;;16.00;10.90;;;;;;;;;;5033958;28;20027;-90
2021/08/20 08:23:49;;;;;;;26.25;11.75;;;;;;;;;;5052337;28;20098;-92
2021/08/20 08:26:14;;;;;;;25.00;13.55;;;;;;;;;;5035329;28;20103;-91
2021/08/20 08:28:39;;;;;;;27.15;12.27;;;;;;;;;;5035936;28;20039;-91
2021/08/20 08:31:05;;;;;;;20.92;11.57;;;;;;;;;;5034887;28;20017;-90
2021/08/20 08:33:30;;;;;;;21.77;11.05;;;;;;;;;;5034536;28;20025;-90
2021/08/20 08:35:58;;;;;;;19.75;10.45;;;;;;;;;;5035117;28;20032;-90
2021/08/20 08:38:24;;;;;;;18.92;11.07;;;;;;;;;;5035959;28;20037;-89
2021/08/20 08:40:49;;;;;;;17.75;10.38;;;;;;;;;;5036468;28;20025;-90
2021/08/20 08:43:15;;;;;;;19.42;10.85;;;;;;;;;;5034334;28;20056;-91
2021/08/20 08:45:40;;;;;;;16.33;11.18;;;;;;;;;;5051849;28;20025;-90
2021/08/20 08:48:07;;;;;;;17.98;10.60;;;;;;;;;;5033435;28;20028;-90
2021/08/20 08:50:33;;;;;;;14.60;8.90;;;;;;;;;;5031837;28;20017;-90
2021/08/20 08:52:59;;;;;;;14.95;9.38;;;;;;;;;;5026353;28;20618;-89
2021/08/20 08:55:24;;;;;;;18.58;11.50;;;;;;;;;;5032740;28;20035;-90
2021/08/20 08:57:49;;;;;;;18.52;11.45;;;;;;;;;;5033522;28;20032;-91
2021/08/20 09:00:26;;;;;;;16.98;10.98;;;;;;;;;;5032796;28;20045;-90
2021/08/20 09:02:52;;;;;;;22.23;12.00;;;;;;;;;;5031900;28;20098;-91
2021/08/20 09:05:43;;;;;;;16.30;8.82;;;;;;;;;;5033213;28;20025;-91
2021/08/20 09:08:15;;;;;;;19.08;9.52;;;;;;;;;;5025879;28;20112;-89
2021/08/20 09:11:13;;;;;;;11.73;8.15;;;;;;;;;;5029937;28;20025;-89
2021/08/20 09:13:38;;;;;;;16.98;8.00;;;;;;;;;;5064580;28;20021;-89
2021/08/20 09:16:08;;;;;;;12.93;8.70;;;;;;;;;;5032881;28;20027;-89
2021/08/20 09:18:33;;;;;;;11.13;7.20;;;;;;;;;;5032367;28;20090;-89
2021/08/20 09:20:58;;;;;;;13.48;6.35;;;;;;;;;;5051296;28;20025;-90
2021/08/20 09:23:25;;;;;;;11.25;6.57;;;;;;;;;;5033696;28;20051;-90
2021/08/20 09:25:52;;;;;;;14.75;8.15;;;;;;;;;;5030850;28;20099;-90
2021/08/20 09:28:21;;;;;;;14.65;8.75;;;;;;;;;;5032023;28;20108;-90
2021/08/20 09:30:57;;;;;;;14.05;7.15;;;;;;;;;;5040257;28;20013;-90
2021/08/20 09:33:30;;;;;;;15.15;6.90;;;;;;;;;;5032565;28;20035;-90
2021/08/20 09:35:56;;;;;;;13.65;7.07;;;;;;;;;;5029690;28;20027;-91
2021/08/20 09:38:21;;;;;;;12.75;6.88;;;;;;;;;;5027241;28;20032;-89
2021/08/20 09:40:52;;;;;;;16.02;7.00;;;;;;;;;;5045591;28;20120;-90
2021/08/20 09:43:23;;;;;;;11.77;7.10;;;;;;;;;;5049909;28;20123;-91
2021/08/20 09:45:55;;;;;;;14.18;6.72;;;;;;;;;;5022478;28;20036;-90
2021/08/20 09:48:40;;;;;;;8.57;5.57;;;;;;;;;;5032129;28;20029;-89
2021/08/20 09:51:05;;;;;;;14.20;6.70;;;;;;;;;;5014582;28;20036;-89
2021/08/20 09:53:33;;;;;;;12.65;6.57;;;;;;;;;;5027953;28;20025;-91
2021/08/20 09:56:09;;;;;;;10.32;4.93;;;;;;;;;;5031587;28;20047;-92
2021/08/20 09:59:01;;;;;;;7.55;3.92;;;;;;;;;;5051768;28;20028;-91
2021/08/20 10:01:30;;;;;;;8.80;5.15;;;;;;;;;;5056694;28;20521;-91
2021/08/20 10:03:59;;;;;;;12.07;6.30;;;;;;;;;;5034403;28;20163;-91
2021/08/20 10:06:32;;;;;;;12.57;7.18;;;;;;;;;;5032967;28;20032;-91
2021/08/20 10:09:12;;;;;;;;;;;;;;;;;;;;;
2021/08/20 10:11:59;;;;;;;11.70;7.13;;;;;;;;;;5051354;28;20029;-89
2021/08/20 10:14:26;;;;;;;8.93;6.50;;;;;;;;;;5032594;28;20036;-90
2021/08/20 10:17:16;;;;;;;12.90;7.75;;;;;;;;;;5033796;28;20394;-91
2021/08/20 10:20:00;;;;;;;;;;;;;;;;;;;;;
2021/08/20 10:22:39;;;;;;;14.20;8.98;;;;;;;;;;5052903;28;20711;-91
2021/08/20 10:25:09;;;;;;;16.33;8.57;;;;;;;;;;5034684;28;20060;-91
2021/08/20 10:27:35;;;;;;;13.43;7.70;;;;;;;;;;5033098;28;20302;-90
2021/08/20 10:30:08;;;;;;;11.75;7.20;;;;;;;;;;5051157;28;20026;-89
2021/08/20 10:32:33;;;;;;;12.77;7.63;;;;;;;;;;5032631;28;20027;-91
2021/08/20 10:34:59;;;;;;;11.50;7.95;;;;;;;;;;5031463;28;20107;-90
2021/08/20 10:37:38;;;;;;;11.80;6.97;;;;;;;;;;5032444;28;20315;-92
2021/08/20 10:40:23;;;;;;;10.45;6.93;;;;;;;;;;5030973;28;20029;-91
2021/08/20 10:42:52;;;;;;;12.18;8.00;;;;;;;;;;5045115;28;20021;-89
2021/08/20 10:45:17;;;;;;;14.45;7.70;;;;;;;;;;5029407;28;20033;-89
2021/08/20 10:47:45;;;;;;;13.65;7.68;;;;;;;;;;5064646;28;20657;-90
2021/08/20 10:50:24;;;;;;;12.95;8.02;;;;;;;;;;5032027;28;20024;-91
2021/08/20 10:52:50;;;;;;;12.02;7.97;;;;;;;;;;5032058;28;20440;-90
2021/08/20 10:55:23;;;;;;;12.48;7.57;;;;;;;;;;5032455;28;20479;-91
2021/08/20 10:57:53;;;;;;;11.75;7.45;;;;;;;;;;5032187;28;20736;-92
2021/08/20 11:00:29;;;;;;;13.73;8.20;;;;;;;;;;5033082;28;20118;-89
2021/08/20 11:03:09;;;;;;;18.48;7.90;;;;;;;;;;5053510;28;20025;-91
2021/08/20 11:09:01;;;;;;;15.30;7.85;;;;;;;;;;5050569;28;20032;-92
2021/08/20 11:11:45;;;;;;;15.40;7.55;;;;;;;;;;5030707;28;20659;-90
2021/08/20 11:17:55;;;;;;;12.38;6.43;;;;;;;;;;4960730;28;20026;-92
2021/08/20 11:20:27;;;;;;;10.82;6.75;;;;;;;;;;4911111;29;20036;-89
2021/08/20 11:23:11;;;;;;;10.57;5.32;;;;;;;;;;4911230;29;20032;-92
2021/08/20 11:25:47;;;;;;;8.68;5.75;;;;;;;;;;4965767;28;20575;-90
2021/08/20 11:28:32;;;;;;;;;;;;;;;;;;;;;
2021/08/20 11:31:06;;;;;;;3.22;1.95;;;;;;;;;;5052730;28;20033;-90
2021/08/20 11:33:53;;;;;;;7.43;2.30;;;;;;;;;;5034253;28;20035;-90
2021/08/20 11:36:21;;;;;;;4.05;2.42;;;;;;;;;;5036763;28;20049;-90
2021/08/20 11:38:48;;;;;;;4.93;2.25;;;;;;;;;;5036406;28;20119;-89
2021/08/20 11:41:20;;;;;;;3.33;2.17;;;;;;;;;;5052029;28;20032;-90
2021/08/20 11:43:46;;;;;;;3.40;2.25;;;;;;;;;;5033763;28;20517;-89
2021/08/20 11:46:31;;;;;;;;;;;;;;;;;;;;;
2021/08/20 11:49:21;;;;;;;3.88;1.60;;;;;;;;;;5050518;28;20033;-92
2021/08/20 11:51:46;;;;;;;2.95;1.95;;;;;;;;;;5053022;28;20036;-89
2021/08/20 11:54:13;;;;;;;3.78;1.60;;;;;;;;;;5034456;28;20029;-91
2021/08/20 11:56:52;;;;;;;5.47;1.95;;;;;;;;;;5053491;28;20017;-92
2021/08/20 11:59:56;;;;;;;3.50;2.40;;;;;;;;;;5030266;28;20132;-91
2021/08/20 12:02:30;;;;;;;5.18;2.50;;;;;;;;;;4971145;28;20030;-91
2021/08/20 12:05:32;;;;;;;4.60;2.20;;;;;;;;;;5027628;28;20489;-93
2021/08/20 12:08:11;;;;;;;4.78;2.30;;;;;;;;;;5030228;28;20071;-88
2021/08/20 12:10:43;;;;;;;4.05;2.30;;;;;;;;;;5036672;28;20024;-90
2021/08/20 12:13:18;;;;;;;6.18;2.72;;;;;;;;;;5039184;28;20100;-89
2021/08/20 12:15:43;;;;;;;3.65;2.38;;;;;;;;;;5040896;28;20486;-89
2021/08/20 12:18:25;;;;;;;8.07;2.28;;;;;;;;;;5043532;28;20026;-89
2021/08/20 12:20:51;;;;;;;9.13;2.33;;;;;;;;;;5040331;28;20059;-89
2021/08/20 12:23:16;;;;;;;5.72;2.03;;;;;;;;;;5032188;28;20032;-89
2021/08/20 12:25:42;;;;;;;3.97;2.70;;;;;;;;;;5032850;28;20402;-89
2021/08/20 12:28:16;;;;;;;5.90;2.58;;;;;;;;;;5050985;28;20045;-91
2021/08/20 12:31:03;;;;;;;6.65;2.08;;;;;;;;;;5080976;28;20048;-67
2021/08/20 12:33:29;;;;;;;6.35;2.45;;;;;;;;;;5091210;28;20374;-67
2021/08/20 12:35:54;;;;;;;3.50;1.97;;;;;;;;;;5073843;28;20030;-67
2021/08/20 12:38:20;;;;;;;4.53;2.20;;;;;;;;;;5079478;28;20114;-65
2021/08/20 12:40:55;;;;;;;3.30;1.85;;;;;;;;;;5092205;28;20031;-66
2021/08/20 12:43:37;;;;;;;4.53;2.45;;;;;;;;;;5129209;22;20031;-69
2021/08/20 12:46:18;;;;;;;4.05;2.40;;;;;;;;;;5099779;28;20016;-69
2021/08/20 12:48:52;;;;;;;5.70;2.40;;;;;;;;;;5112033;28;20088;-69
2021/08/20 12:51:17;;;;;;;8.70;2.58;;;;;;;;;;5109671;28;20130;-67
2021/08/20 12:53:42;;;;;;;5.78;2.70;;;;;;;;;;5111060;28;20370;-68
2021/08/20 12:56:08;;;;;;;9.43;2.23;;;;;;;;;;5091645;28;20008;-69
2021/08/20 12:58:34;;;;;;;5.35;2.90;;;;;;;;;;5092074;28;20331;-68
2021/08/20 13:01:00;;;;;;;4.53;2.88;;;;;;;;;;5092457;28;20505;-68
2021/08/20 13:03:26;;;;;;;12.45;2.95;;;;;;;;;;5101573;28;20043;-68
2021/08/20 13:05:57;;;;;;;4.97;2.78;;;;;;;;;;5090199;28;20377;-68
2021/08/20 13:08:24;;;;;;;8.38;2.78;;;;;;;;;;5093216;28;20024;-70
2021/08/20 13:10:49;;;;;;;5.00;2.95;;;;;;;;;;5090772;28;20059;-69
2021/08/20 13:13:14;;;;;;;3.45;2.35;;;;;;;;;;5090603;28;20056;-68
2021/08/20 13:15:39;;;;;;;5.55;2.63;;;;;;;;;;5090762;28;20081;-70
2021/08/20 13:18:06;;;;;;;8.30;2.70;;;;;;;;;;5097858;28;20029;-68
2021/08/20 13:20:32;;;;;;;6.18;2.90;;;;;;;;;;5100938;28;20680;-69
2021/08/20 13:22:57;;;;;;;6.13;2.97;;;;;;;;;;5090283;28;20059;-69
2021/08/20 13:25:22;;;;;;;7.47;2.90;;;;;;;;;;5090191;28;20270;-69
2021/08/20 13:27:47;;;;;;;4.03;2.30;;;;;;;;;;5090132;28;20093;-69
2021/08/20 13:30:12;;;;;;;3.57;2.50;;;;;;;;;;5090455;28;20056;-69
2021/08/20 13:32:37;;;;;;;3.93;2.60;;;;;;;;;;5090084;28;20285;-69
2021/08/20 13:35:03;;;;;;;3.07;2.30;;;;;;;;;;5090715;28;20276;-68
2021/08/20 13:37:28;;;;;;;3.63;2.63;;;;;;;;;;5090181;28;20254;-69
2021/08/20 13:39:53;;;;;;;12.73;2.70;;;;;;;;;;5101906;28;20020;-69
2021/08/20 13:42:18;;;;;;;4.03;2.50;;;;;;;;;;5102472;28;20430;-69
2021/08/20 13:44:44;;;;;;;2.20;2.00;;;;;;;;;;5089799;28;20037;-69
2021/08/20 13:47:09;;;;;;;2.97;1.70;;;;;;;;;;5090638;28;20281;-69
2021/08/20 13:49:34;;;;;;;4.63;2.10;;;;;;;;;;5090815;28;20717;-69
2021/08/20 13:51:59;;;;;;;3.60;1.97;;;;;;;;;;5087438;28;20278;-69
2021/08/20 13:54:24;;;;;;;6.17;2.17;;;;;;;;;;5090263;28;20257;-69
2021/08/20 13:56:49;;;;;;;3.93;1.90;;;;;;;;;;5092810;28;20278;-69
2021/08/20 13:59:15;;;;;;;3.07;1.97;;;;;;;;;;5090484;28;20636;-69
2021/08/20 14:01:40;;;;;;;2.93;1.90;;;;;;;;;;5089244;28;20102;-69
2021/08/20 14:04:05;;;;;;;3.87;2.33;;;;;;;;;;5090200;28;20254;-69
2021/08/20 14:06:31;;;;;;;4.20;2.20;;;;;;;;;;5090248;28;20028;-69
2021/08/20 14:08:56;;;;;;;3.72;2.08;;;;;;;;;;5089916;28;20062;-69
2021/08/20 14:11:21;;;;;;;6.13;2.70;;;;;;;;;;5090097;28;20482;-69
2021/08/20 14:13:46;;;;;;;4.33;1.90;;;;;;;;;;5088994;28;20269;-69
2021/08/20 14:16:12;;;;;;;5.37;2.00;;;;;;;;;;5089777;28;20316;-69
2021/08/20 14:18:37;;;;;;;2.27;1.70;;;;;;;;;;5075742;28;20270;-68
2021/08/20 14:21:03;;;;;;;3.30;1.90;;;;;;;;;;5081175;28;20069;-68
2021/08/20 14:23:28;;;;;;;4.80;1.60;;;;;;;;;;5089219;28;20085;-69
2021/08/20 14:25:54;;;;;;;6.93;1.92;;;;;;;;;;5090253;28;20024;-69
2021/08/20 14:28:19;;;;;;;4.10;1.80;;;;;;;;;;5090484;28;20023;-68
2021/08/20 14:30:44;;;;;;;7.60;2.00;;;;;;;;;;5090242;28;20024;-69
2021/08/20 14:33:11;;;;;;;3.30;1.63;;;;;;;;;;5089355;28;20711;-68
2021/08/20 14:35:36;;;;;;;3.40;1.55;;;;;;;;;;5085836;28;20028;-68
2021/08/20 14:38:03;;;;;;;4.47;1.50;;;;;;;;;;5090568;28;20089;-68
2021/08/20 14:40:28;;;;;;;3.33;1.90;;;;;;;;;;5088124;28;20266;-69
2021/08/20 14:42:53;;;;;;;3.30;1.90;;;;;;;;;;5089229;28;20028;-68
2021/08/20 14:45:18;;;;;;;4.03;1.83;;;;;;;;;;5089187;28;20265;-69
2021/08/20 14:47:43;;;;;;;3.30;1.47;;;;;;;;;;5097071;28;20344;-69
2021/08/20 14:50:10;;;;;;;4.00;2.20;;;;;;;;;;5091810;28;20365;-69
2021/08/20 14:52:39;;;;;;;3.20;1.92;;;;;;;;;;5086076;28;20090;-69
2021/08/20 14:55:05;;;;;;;5.20;2.03;;;;;;;;;;5090095;28;20024;-69
2021/08/20 14:57:31;;;;;;;6.47;1.77;;;;;;;;;;5085746;28;20119;-69
2021/08/20 14:59:56;;;;;;;5.30;1.90;;;;;;;;;;5089658;28;20123;-69